sensor_id;sensor_type;location;lat;lon;timestamp;P1;durP1;ratioP1;P2;durP2;ratioP2
27612;SDS011;15036;48.094;-1.690;2023-08-17T00:01:22;5.97;;;3.15;;
27612;SDS011;15036;48.094;-1.690;2023-08-17T00:03:48;5.70;;;3.20;;
27612;SDS011;15036;48.094;-1.690;2023-08-17T00:06:13;6.15;;;3.00;;
27612;SDS011;15036;48.094;-1.690;2023-08-17T00:08:38;7.82;;;3.20;;
27612;SDS011;15036;48.094;-1.690;2023-08-17T00:11:04;7.00;;;3.17;;
27612;SDS011;15036;48.094;-1.690;2023-08-17T00:13:29;6.18;;;3.13;;
27612;SDS011;15036;48.094;-1.690;2023-08-17T00:15:54;6.80;;;3.22;;
27612;SDS011;15036;48.094;-1.690;2023-08-17T00:18:20;7.45;;;3.15;;
27612;SDS011;15036;48.094;-1.690;2023-08-17T00:20:45;5.78;;;3.22;;
27612;SDS011;15036;48.094;-1.690;2023-08-17T00:23:10;6.03;;;2.97;;
27612;SDS011;15036;48.094;-1.690;2023-08-17T00:25:36;7.72;;;3.03;;
27612;SDS011;15036;48.094;-1.690;2023-08-17T00:28:01;7.20;;;3.35;;
27612;SDS011;15036;48.094;-1.690;2023-08-17T00:30:27;5.35;;;3.05;;
27612;SDS011;15036;48.094;-1.690;2023-08-17T00:32:52;6.70;;;2.97;;
27612;SDS011;15036;48.094;-1.690;2023-08-17T00:35:17;6.78;;;3.50;;
27612;SDS011;15036;48.094;-1.690;2023-08-17T00:37:43;7.72;;;3.03;;
27612;SDS011;15036;48.094;-1.690;2023-08-17T00:40:08;8.20;;;3.30;;
27612;SDS011;15036;48.094;-1.690;2023-08-17T00:42:34;5.13;;;2.80;;
27612;SDS011;15036;48.094;-1.690;2023-08-17T00:44:59;5.35;;;2.83;;
27612;SDS011;15036;48.094;-1.690;2023-08-17T00:47:25;7.78;;;3.35;;
27612;SDS011;15036;48.094;-1.690;2023-08-17T00:49:50;8.20;;;3.28;;
27612;SDS011;15036;48.094;-1.690;2023-08-17T00:52:16;6.45;;;3.40;;
27612;SDS011;15036;48.094;-1.690;2023-08-17T00:54:41;7.28;;;2.80;;
27612;SDS011;15036;48.094;-1.690;2023-08-17T00:57:08;5.05;;;3.10;;
27612;SDS011;15036;48.094;-1.690;2023-08-17T00:59:34;6.72;;;3.13;;
27612;SDS011;15036;48.094;-1.690;2023-08-17T01:02:00;7.25;;;3.03;;
27612;SDS011;15036;48.094;-1.690;2023-08-17T01:04:26;6.75;;;2.80;;
27612;SDS011;15036;48.094;-1.690;2023-08-17T01:06:51;5.05;;;3.00;;
27612;SDS011;15036;48.094;-1.690;2023-08-17T01:09:16;7.45;;;2.80;;
27612;SDS011;15036;48.094;-1.690;2023-08-17T01:11:49;6.70;;;2.75;;
27612;SDS011;15036;48.094;-1.690;2023-08-17T01:14:27;4.97;;;2.92;;
27612;SDS011;15036;48.094;-1.690;2023-08-17T01:17:02;7.10;;;2.92;;
27612;SDS011;15036;48.094;-1.690;2023-08-17T01:19:28;5.20;;;2.85;;
27612;SDS011;15036;48.094;-1.690;2023-08-17T01:21:54;6.28;;;3.00;;
27612;SDS011;15036;48.094;-1.690;2023-08-17T01:24:25;7.30;;;2.60;;
27612;SDS011;15036;48.094;-1.690;2023-08-17T01:26:51;6.60;;;2.70;;
27612;SDS011;15036;48.094;-1.690;2023-08-17T01:29:17;5.82;;;2.80;;
27612;SDS011;15036;48.094;-1.690;2023-08-17T01:31:47;5.45;;;2.72;;
27612;SDS011;15036;48.094;-1.690;2023-08-17T01:34:24;5.93;;;2.70;;
27612;SDS011;15036;48.094;-1.690;2023-08-17T01:36:53;3.72;;;2.33;;
27612;SDS011;15036;48.094;-1.690;2023-08-17T01:41:51;4.32;;;2.28;;
27612;SDS011;15036;48.094;-1.690;2023-08-17T01:44:17;7.30;;;2.90;;
27612;SDS011;15036;48.094;-1.690;2023-08-17T01:46:43;4.18;;;2.42;;
27612;SDS011;15036;48.094;-1.690;2023-08-17T01:49:08;3.75;;;2.67;;
27612;SDS011;15036;48.094;-1.690;2023-08-17T01:51:34;5.03;;;2.90;;
27612;SDS011;15036;48.094;-1.690;2023-08-17T01:53:59;5.28;;;2.80;;
27612;SDS011;15036;48.094;-1.690;2023-08-17T01:56:24;5.90;;;2.50;;
27612;SDS011;15036;48.094;-1.690;2023-08-17T01:58:50;5.50;;;2.88;;
27612;SDS011;15036;48.094;-1.690;2023-08-17T02:01:15;5.20;;;2.53;;
27612;SDS011;15036;48.094;-1.690;2023-08-17T02:03:40;4.90;;;2.30;;
27612;SDS011;15036;48.094;-1.690;2023-08-17T02:06:06;5.32;;;2.60;;
27612;SDS011;15036;48.094;-1.690;2023-08-17T02:08:32;5.53;;;2.60;;
27612;SDS011;15036;48.094;-1.690;2023-08-17T02:10:58;3.72;;;2.40;;
27612;SDS011;15036;48.094;-1.690;2023-08-17T02:13:24;5.43;;;2.50;;
27612;SDS011;15036;48.094;-1.690;2023-08-17T02:15:49;5.57;;;2.50;;
27612;SDS011;15036;48.094;-1.690;2023-08-17T02:18:15;3.28;;;2.47;;
27612;SDS011;15036;48.094;-1.690;2023-08-17T02:20:40;5.97;;;2.38;;
27612;SDS011;15036;48.094;-1.690;2023-08-17T02:23:05;6.05;;;2.78;;
27612;SDS011;15036;48.094;-1.690;2023-08-17T02:25:31;5.55;;;2.50;;
27612;SDS011;15036;48.094;-1.690;2023-08-17T02:28:03;4.82;;;2.63;;
27612;SDS011;15036;48.094;-1.690;2023-08-17T02:30:29;5.35;;;2.70;;
27612;SDS011;15036;48.094;-1.690;2023-08-17T02:32:55;4.40;;;2.42;;
27612;SDS011;15036;48.094;-1.690;2023-08-17T02:35:20;4.45;;;2.40;;
27612;SDS011;15036;48.094;-1.690;2023-08-17T02:37:46;3.67;;;2.60;;
27612;SDS011;15036;48.094;-1.690;2023-08-17T02:40:13;5.18;;;2.60;;
27612;SDS011;15036;48.094;-1.690;2023-08-17T02:42:38;4.80;;;2.47;;
27612;SDS011;15036;48.094;-1.690;2023-08-17T02:45:05;6.30;;;2.53;;
27612;SDS011;15036;48.094;-1.690;2023-08-17T02:47:31;6.65;;;2.85;;
27612;SDS011;15036;48.094;-1.690;2023-08-17T02:49:56;5.05;;;2.72;;
27612;SDS011;15036;48.094;-1.690;2023-08-17T02:52:22;4.30;;;2.65;;
27612;SDS011;15036;48.094;-1.690;2023-08-17T02:54:47;4.25;;;2.50;;
27612;SDS011;15036;48.094;-1.690;2023-08-17T02:57:12;5.93;;;2.65;;
27612;SDS011;15036;48.094;-1.690;2023-08-17T02:59:38;5.38;;;2.67;;
27612;SDS011;15036;48.094;-1.690;2023-08-17T03:02:04;3.95;;;2.45;;
27612;SDS011;15036;48.094;-1.690;2023-08-17T03:04:30;6.97;;;2.65;;
27612;SDS011;15036;48.094;-1.690;2023-08-17T03:06:55;4.15;;;2.30;;
27612;SDS011;15036;48.094;-1.690;2023-08-17T03:09:20;4.68;;;2.38;;
27612;SDS011;15036;48.094;-1.690;2023-08-17T03:11:46;4.43;;;2.40;;
27612;SDS011;15036;48.094;-1.690;2023-08-17T03:14:11;3.65;;;2.35;;
27612;SDS011;15036;48.094;-1.690;2023-08-17T03:16:36;5.32;;;2.30;;
27612;SDS011;15036;48.094;-1.690;2023-08-17T03:19:03;5.63;;;2.45;;
27612;SDS011;15036;48.094;-1.690;2023-08-17T03:21:29;5.30;;;2.30;;
27612;SDS011;15036;48.094;-1.690;2023-08-17T03:23:55;5.30;;;2.40;;
27612;SDS011;15036;48.094;-1.690;2023-08-17T03:26:20;6.30;;;2.53;;
27612;SDS011;15036;48.094;-1.690;2023-08-17T03:28:45;5.60;;;2.67;;
27612;SDS011;15036;48.094;-1.690;2023-08-17T03:31:11;5.10;;;2.70;;
27612;SDS011;15036;48.094;-1.690;2023-08-17T03:33:36;6.50;;;2.60;;
27612;SDS011;15036;48.094;-1.690;2023-08-17T03:36:02;5.88;;;2.30;;
27612;SDS011;15036;48.094;-1.690;2023-08-17T03:38:28;5.68;;;2.60;;
27612;SDS011;15036;48.094;-1.690;2023-08-17T03:40:53;5.15;;;2.70;;
27612;SDS011;15036;48.094;-1.690;2023-08-17T03:43:19;4.97;;;2.60;;
27612;SDS011;15036;48.094;-1.690;2023-08-17T03:45:44;7.47;;;3.08;;
27612;SDS011;15036;48.094;-1.690;2023-08-17T03:48:09;3.45;;;2.60;;
27612;SDS011;15036;48.094;-1.690;2023-08-17T03:50:35;5.30;;;2.65;;
27612;SDS011;15036;48.094;-1.690;2023-08-17T03:53:01;6.38;;;2.55;;
27612;SDS011;15036;48.094;-1.690;2023-08-17T03:55:26;5.50;;;2.70;;
27612;SDS011;15036;48.094;-1.690;2023-08-17T03:57:51;5.93;;;2.97;;
27612;SDS011;15036;48.094;-1.690;2023-08-17T04:00:17;5.20;;;3.08;;
27612;SDS011;15036;48.094;-1.690;2023-08-17T04:02:42;4.38;;;2.55;;
27612;SDS011;15036;48.094;-1.690;2023-08-17T04:05:08;3.70;;;2.40;;
27612;SDS011;15036;48.094;-1.690;2023-08-17T04:07:34;4.65;;;2.60;;
27612;SDS011;15036;48.094;-1.690;2023-08-17T04:09:59;5.63;;;3.05;;
27612;SDS011;15036;48.094;-1.690;2023-08-17T04:12:25;4.80;;;2.72;;
27612;SDS011;15036;48.094;-1.690;2023-08-17T04:14:50;4.32;;;2.80;;
27612;SDS011;15036;48.094;-1.690;2023-08-17T04:17:15;5.13;;;2.92;;
27612;SDS011;15036;48.094;-1.690;2023-08-17T04:19:41;6.10;;;2.72;;
27612;SDS011;15036;48.094;-1.690;2023-08-17T04:22:06;5.07;;;2.72;;
27612;SDS011;15036;48.094;-1.690;2023-08-17T04:24:32;5.72;;;2.90;;
27612;SDS011;15036;48.094;-1.690;2023-08-17T04:26:57;4.40;;;2.80;;
27612;SDS011;15036;48.094;-1.690;2023-08-17T04:29:22;5.72;;;2.90;;
27612;SDS011;15036;48.094;-1.690;2023-08-17T04:31:48;3.17;;;2.42;;
27612;SDS011;15036;48.094;-1.690;2023-08-17T04:34:13;6.40;;;2.78;;
27612;SDS011;15036;48.094;-1.690;2023-08-17T04:36:40;5.18;;;2.85;;
27612;SDS011;15036;48.094;-1.690;2023-08-17T04:39:06;5.68;;;2.75;;
27612;SDS011;15036;48.094;-1.690;2023-08-17T04:41:31;5.05;;;3.08;;
27612;SDS011;15036;48.094;-1.690;2023-08-17T04:43:56;6.35;;;2.58;;
27612;SDS011;15036;48.094;-1.690;2023-08-17T04:46:22;4.70;;;2.90;;
27612;SDS011;15036;48.094;-1.690;2023-08-17T04:48:47;5.40;;;3.08;;
27612;SDS011;15036;48.094;-1.690;2023-08-17T04:51:13;5.55;;;2.92;;
27612;SDS011;15036;48.094;-1.690;2023-08-17T04:53:39;4.43;;;3.10;;
27612;SDS011;15036;48.094;-1.690;2023-08-17T04:56:05;6.45;;;3.00;;
27612;SDS011;15036;48.094;-1.690;2023-08-17T04:58:30;4.30;;;2.90;;
27612;SDS011;15036;48.094;-1.690;2023-08-17T05:00:56;6.22;;;3.00;;
27612;SDS011;15036;48.094;-1.690;2023-08-17T05:03:21;4.13;;;2.63;;
27612;SDS011;15036;48.094;-1.690;2023-08-17T05:05:46;5.38;;;2.70;;
27612;SDS011;15036;48.094;-1.690;2023-08-17T05:08:12;5.45;;;2.80;;
27612;SDS011;15036;48.094;-1.690;2023-08-17T05:10:38;4.90;;;2.47;;
27612;SDS011;15036;48.094;-1.690;2023-08-17T05:13:04;5.40;;;2.60;;
27612;SDS011;15036;48.094;-1.690;2023-08-17T05:15:29;4.05;;;2.47;;
27612;SDS011;15036;48.094;-1.690;2023-08-17T05:17:55;4.22;;;2.38;;
27612;SDS011;15036;48.094;-1.690;2023-08-17T05:20:21;4.57;;;2.65;;
27612;SDS011;15036;48.094;-1.690;2023-08-17T05:22:46;4.90;;;2.88;;
27612;SDS011;15036;48.094;-1.690;2023-08-17T05:25:12;6.18;;;2.90;;
27612;SDS011;15036;48.094;-1.690;2023-08-17T05:27:37;5.47;;;2.80;;
27612;SDS011;15036;48.094;-1.690;2023-08-17T05:30:03;5.28;;;2.83;;
27612;SDS011;15036;48.094;-1.690;2023-08-17T05:32:29;4.95;;;2.80;;
27612;SDS011;15036;48.094;-1.690;2023-08-17T05:34:54;5.03;;;2.88;;
27612;SDS011;15036;48.094;-1.690;2023-08-17T05:37:19;6.72;;;2.90;;
27612;SDS011;15036;48.094;-1.690;2023-08-17T05:39:45;3.47;;;2.35;;
27612;SDS011;15036;48.094;-1.690;2023-08-17T05:42:10;5.55;;;2.47;;
27612;SDS011;15036;48.094;-1.690;2023-08-17T05:44:36;6.07;;;2.67;;
27612;SDS011;15036;48.094;-1.690;2023-08-17T05:47:01;4.28;;;2.35;;
27612;SDS011;15036;48.094;-1.690;2023-08-17T05:49:27;6.07;;;2.90;;
27612;SDS011;15036;48.094;-1.690;2023-08-17T05:51:52;6.85;;;2.70;;
27612;SDS011;15036;48.094;-1.690;2023-08-17T05:54:18;5.13;;;2.88;;
27612;SDS011;15036;48.094;-1.690;2023-08-17T05:56:43;5.47;;;3.20;;
27612;SDS011;15036;48.094;-1.690;2023-08-17T05:59:11;5.13;;;2.90;;
27612;SDS011;15036;48.094;-1.690;2023-08-17T06:01:37;4.55;;;3.00;;
27612;SDS011;15036;48.094;-1.690;2023-08-17T06:04:03;6.05;;;2.88;;
27612;SDS011;15036;48.094;-1.690;2023-08-17T06:06:29;4.65;;;2.97;;
27612;SDS011;15036;48.094;-1.690;2023-08-17T06:08:54;5.80;;;3.15;;
27612;SDS011;15036;48.094;-1.690;2023-08-17T06:11:19;5.15;;;3.10;;
27612;SDS011;15036;48.094;-1.690;2023-08-17T06:13:45;4.13;;;2.65;;
27612;SDS011;15036;48.094;-1.690;2023-08-17T06:16:10;4.35;;;2.72;;
27612;SDS011;15036;48.094;-1.690;2023-08-17T06:18:36;4.68;;;3.08;;
27612;SDS011;15036;48.094;-1.690;2023-08-17T06:21:02;5.13;;;2.78;;
27612;SDS011;15036;48.094;-1.690;2023-08-17T06:23:27;5.70;;;3.08;;
27612;SDS011;15036;48.094;-1.690;2023-08-17T06:25:56;6.05;;;2.83;;
27612;SDS011;15036;48.094;-1.690;2023-08-17T06:28:25;3.88;;;2.83;;
27612;SDS011;15036;48.094;-1.690;2023-08-17T06:30:56;5.15;;;2.72;;
27612;SDS011;15036;48.094;-1.690;2023-08-17T06:33:22;4.13;;;2.85;;
27612;SDS011;15036;48.094;-1.690;2023-08-17T06:35:48;5.78;;;2.90;;
27612;SDS011;15036;48.094;-1.690;2023-08-17T06:38:14;6.30;;;3.03;;
27612;SDS011;15036;48.094;-1.690;2023-08-17T06:40:40;5.28;;;3.20;;
27612;SDS011;15036;48.094;-1.690;2023-08-17T06:43:05;4.28;;;2.88;;
27612;SDS011;15036;48.094;-1.690;2023-08-17T06:45:31;5.93;;;2.92;;
27612;SDS011;15036;48.094;-1.690;2023-08-17T06:47:57;4.93;;;3.20;;
27612;SDS011;15036;48.094;-1.690;2023-08-17T06:50:22;4.95;;;3.00;;
27612;SDS011;15036;48.094;-1.690;2023-08-17T06:52:47;7.40;;;3.20;;
27612;SDS011;15036;48.094;-1.690;2023-08-17T06:55:13;4.13;;;3.00;;
27612;SDS011;15036;48.094;-1.690;2023-08-17T06:57:39;5.75;;;3.13;;
27612;SDS011;15036;48.094;-1.690;2023-08-17T07:00:05;5.35;;;2.80;;
27612;SDS011;15036;48.094;-1.690;2023-08-17T07:02:30;4.25;;;3.00;;
27612;SDS011;15036;48.094;-1.690;2023-08-17T07:04:56;4.80;;;3.03;;
27612;SDS011;15036;48.094;-1.690;2023-08-17T07:07:21;7.10;;;4.03;;
27612;SDS011;15036;48.094;-1.690;2023-08-17T07:09:47;4.85;;;3.22;;
27612;SDS011;15036;48.094;-1.690;2023-08-17T07:12:12;4.82;;;3.05;;
27612;SDS011;15036;48.094;-1.690;2023-08-17T07:14:37;7.13;;;3.70;;
27612;SDS011;15036;48.094;-1.690;2023-08-17T07:17:03;5.50;;;3.60;;
27612;SDS011;15036;48.094;-1.690;2023-08-17T07:19:28;7.00;;;3.40;;
27612;SDS011;15036;48.094;-1.690;2023-08-17T07:21:53;8.63;;;4.20;;
27612;SDS011;15036;48.094;-1.690;2023-08-17T07:24:19;5.07;;;3.70;;
27612;SDS011;15036;48.094;-1.690;2023-08-17T07:26:44;9.60;;;4.35;;
27612;SDS011;15036;48.094;-1.690;2023-08-17T07:29:10;6.85;;;4.00;;
27612;SDS011;15036;48.094;-1.690;2023-08-17T07:31:36;6.05;;;3.53;;
27612;SDS011;15036;48.094;-1.690;2023-08-17T07:34:03;6.47;;;4.03;;
27612;SDS011;15036;48.094;-1.690;2023-08-17T07:36:29;6.22;;;3.95;;
27612;SDS011;15036;48.094;-1.690;2023-08-17T07:38:54;5.05;;;3.72;;
27612;SDS011;15036;48.094;-1.690;2023-08-17T07:41:20;7.40;;;4.18;;
27612;SDS011;15036;48.094;-1.690;2023-08-17T07:43:45;6.57;;;4.10;;
27612;SDS011;15036;48.094;-1.690;2023-08-17T07:46:10;6.43;;;3.85;;
27612;SDS011;15036;48.094;-1.690;2023-08-17T07:48:36;5.55;;;3.80;;
27612;SDS011;15036;48.094;-1.690;2023-08-17T07:51:01;5.80;;;4.32;;
27612;SDS011;15036;48.094;-1.690;2023-08-17T07:53:26;6.95;;;4.10;;
27612;SDS011;15036;48.094;-1.690;2023-08-17T07:55:52;4.95;;;3.85;;
27612;SDS011;15036;48.094;-1.690;2023-08-17T07:58:17;5.75;;;3.72;;
27612;SDS011;15036;48.094;-1.690;2023-08-17T08:00:42;5.82;;;4.13;;
27612;SDS011;15036;48.094;-1.690;2023-08-17T08:03:08;8.05;;;4.03;;
27612;SDS011;15036;48.094;-1.690;2023-08-17T08:05:33;7.22;;;4.20;;
27612;SDS011;15036;48.094;-1.690;2023-08-17T08:07:59;6.57;;;4.30;;
27612;SDS011;15036;48.094;-1.690;2023-08-17T08:10:24;9.55;;;4.85;;
27612;SDS011;15036;48.094;-1.690;2023-08-17T08:12:49;6.05;;;3.75;;
27612;SDS011;15036;48.094;-1.690;2023-08-17T08:15:15;5.18;;;3.83;;
27612;SDS011;15036;48.094;-1.690;2023-08-17T08:17:40;5.40;;;3.78;;
27612;SDS011;15036;48.094;-1.690;2023-08-17T08:20:06;6.65;;;3.70;;
27612;SDS011;15036;48.094;-1.690;2023-08-17T08:22:31;7.20;;;3.88;;
27612;SDS011;15036;48.094;-1.690;2023-08-17T08:24:57;7.45;;;4.10;;
27612;SDS011;15036;48.094;-1.690;2023-08-17T08:27:23;6.63;;;4.07;;
27612;SDS011;15036;48.094;-1.690;2023-08-17T08:29:49;8.15;;;4.40;;
27612;SDS011;15036;48.094;-1.690;2023-08-17T08:32:14;5.47;;;4.15;;
27612;SDS011;15036;48.094;-1.690;2023-08-17T08:34:40;6.60;;;3.95;;
27612;SDS011;15036;48.094;-1.690;2023-08-17T08:37:05;6.82;;;4.20;;
27612;SDS011;15036;48.094;-1.690;2023-08-17T08:39:30;7.22;;;4.18;;
27612;SDS011;15036;48.094;-1.690;2023-08-17T08:41:56;4.95;;;3.92;;
27612;SDS011;15036;48.094;-1.690;2023-08-17T08:44:21;5.97;;;4.00;;
27612;SDS011;15036;48.094;-1.690;2023-08-17T08:46:47;5.63;;;4.15;;
27612;SDS011;15036;48.094;-1.690;2023-08-17T08:49:13;6.05;;;4.10;;
27612;SDS011;15036;48.094;-1.690;2023-08-17T08:51:44;7.88;;;4.57;;
27612;SDS011;15036;48.094;-1.690;2023-08-17T08:54:13;6.63;;;4.57;;
27612;SDS011;15036;48.094;-1.690;2023-08-17T08:56:51;6.57;;;4.90;;
27612;SDS011;15036;48.094;-1.690;2023-08-17T08:59:24;7.47;;;4.82;;
27612;SDS011;15036;48.094;-1.690;2023-08-17T09:01:51;7.30;;;4.40;;
27612;SDS011;15036;48.094;-1.690;2023-08-17T09:04:17;8.45;;;5.18;;
27612;SDS011;15036;48.094;-1.690;2023-08-17T09:06:43;6.68;;;4.60;;
27612;SDS011;15036;48.094;-1.690;2023-08-17T09:09:09;8.15;;;4.32;;
27612;SDS011;15036;48.094;-1.690;2023-08-17T09:11:36;7.35;;;4.88;;
27612;SDS011;15036;48.094;-1.690;2023-08-17T09:14:01;7.38;;;4.50;;
27612;SDS011;15036;48.094;-1.690;2023-08-17T09:16:27;9.90;;;4.90;;
27612;SDS011;15036;48.094;-1.690;2023-08-17T09:18:53;7.88;;;4.80;;
27612;SDS011;15036;48.094;-1.690;2023-08-17T09:21:22;8.10;;;4.93;;
27612;SDS011;15036;48.094;-1.690;2023-08-17T09:23:51;9.63;;;4.18;;
27612;SDS011;15036;48.094;-1.690;2023-08-17T09:26:19;6.30;;;4.70;;
27612;SDS011;15036;48.094;-1.690;2023-08-17T09:28:47;5.97;;;4.50;;
27612;SDS011;15036;48.094;-1.690;2023-08-17T09:31:12;6.72;;;4.72;;
27612;SDS011;15036;48.094;-1.690;2023-08-17T09:33:38;8.15;;;4.32;;
27612;SDS011;15036;48.094;-1.690;2023-08-17T09:36:03;7.88;;;4.50;;
27612;SDS011;15036;48.094;-1.690;2023-08-17T09:38:29;6.43;;;4.30;;
27612;SDS011;15036;48.094;-1.690;2023-08-17T09:40:56;6.28;;;4.60;;
27612;SDS011;15036;48.094;-1.690;2023-08-17T09:43:22;8.05;;;4.63;;
27612;SDS011;15036;48.094;-1.690;2023-08-17T09:45:48;12.60;;;4.97;;
27612;SDS011;15036;48.094;-1.690;2023-08-17T09:48:18;6.25;;;4.88;;
27612;SDS011;15036;48.094;-1.690;2023-08-17T09:53:14;8.15;;;5.03;;
27612;SDS011;15036;48.094;-1.690;2023-08-17T09:58:07;7.38;;;4.93;;
27612;SDS011;15036;48.094;-1.690;2023-08-17T10:00:33;8.27;;;4.40;;
27612;SDS011;15036;48.094;-1.690;2023-08-17T10:03:01;6.13;;;4.32;;
27612;SDS011;15036;48.094;-1.690;2023-08-17T10:05:28;8.18;;;4.68;;
27612;SDS011;15036;48.094;-1.690;2023-08-17T10:08:00;8.52;;;4.68;;
27612;SDS011;15036;48.094;-1.690;2023-08-17T10:10:28;5.82;;;4.25;;
27612;SDS011;15036;48.094;-1.690;2023-08-17T10:13:11;8.15;;;4.10;;
27612;SDS011;15036;48.094;-1.690;2023-08-17T10:15:44;8.02;;;4.60;;
27612;SDS011;15036;48.094;-1.690;2023-08-17T10:18:24;7.43;;;4.00;;
27612;SDS011;15036;48.094;-1.690;2023-08-17T10:21:03;4.82;;;3.90;;
27612;SDS011;15036;48.094;-1.690;2023-08-17T10:23:33;5.82;;;4.10;;
27612;SDS011;15036;48.094;-1.690;2023-08-17T10:26:02;6.28;;;4.28;;
27612;SDS011;15036;48.094;-1.690;2023-08-17T10:28:30;8.32;;;4.40;;
27612;SDS011;15036;48.094;-1.690;2023-08-17T10:30:57;4.95;;;3.95;;
27612;SDS011;15036;48.094;-1.690;2023-08-17T10:33:23;5.25;;;4.00;;
27612;SDS011;15036;48.094;-1.690;2023-08-17T10:35:49;6.28;;;4.00;;
27612;SDS011;15036;48.094;-1.690;2023-08-17T10:38:15;7.03;;;3.85;;
27612;SDS011;15036;48.094;-1.690;2023-08-17T10:40:42;6.32;;;4.15;;
27612;SDS011;15036;48.094;-1.690;2023-08-17T10:43:08;6.45;;;4.03;;
27612;SDS011;15036;48.094;-1.690;2023-08-17T10:45:34;6.13;;;3.88;;
27612;SDS011;15036;48.094;-1.690;2023-08-17T10:50:31;6.72;;;4.30;;
27612;SDS011;15036;48.094;-1.690;2023-08-17T10:52:58;6.72;;;3.88;;
27612;SDS011;15036;48.094;-1.690;2023-08-17T10:55:35;5.78;;;4.30;;
27612;SDS011;15036;48.094;-1.690;2023-08-17T10:58:05;7.07;;;3.80;;
27612;SDS011;15036;48.094;-1.690;2023-08-17T11:00:39;4.90;;;3.60;;
27612;SDS011;15036;48.094;-1.690;2023-08-17T11:03:07;6.63;;;4.03;;
27612;SDS011;15036;48.094;-1.690;2023-08-17T11:08:05;5.95;;;3.75;;
27612;SDS011;15036;48.094;-1.690;2023-08-17T11:10:34;4.40;;;3.58;;
27612;SDS011;15036;48.094;-1.690;2023-08-17T11:12:59;5.43;;;3.90;;
27612;SDS011;15036;48.094;-1.690;2023-08-17T11:15:25;6.43;;;3.55;;
27612;SDS011;15036;48.094;-1.690;2023-08-17T11:17:59;5.55;;;3.30;;
27612;SDS011;15036;48.094;-1.690;2023-08-17T11:20:24;6.72;;;3.97;;
27612;SDS011;15036;48.094;-1.690;2023-08-17T11:22:50;7.53;;;3.80;;
27612;SDS011;15036;48.094;-1.690;2023-08-17T11:25:15;4.93;;;3.53;;
27612;SDS011;15036;48.094;-1.690;2023-08-17T11:27:40;5.50;;;3.60;;
27612;SDS011;15036;48.094;-1.690;2023-08-17T11:30:06;4.97;;;3.58;;
27612;SDS011;15036;48.094;-1.690;2023-08-17T11:32:33;5.38;;;3.30;;
27612;SDS011;15036;48.094;-1.690;2023-08-17T11:34:58;5.93;;;3.67;;
27612;SDS011;15036;48.094;-1.690;2023-08-17T11:37:23;5.55;;;3.75;;
27612;SDS011;15036;48.094;-1.690;2023-08-17T11:39:48;6.63;;;3.88;;
27612;SDS011;15036;48.094;-1.690;2023-08-17T11:42:14;5.50;;;3.60;;
27612;SDS011;15036;48.094;-1.690;2023-08-17T11:44:39;4.55;;;3.40;;
27612;SDS011;15036;48.094;-1.690;2023-08-17T11:47:05;5.90;;;3.75;;
27612;SDS011;15036;48.094;-1.690;2023-08-17T11:49:31;4.32;;;3.20;;
27612;SDS011;15036;48.094;-1.690;2023-08-17T11:51:57;4.22;;;2.83;;
27612;SDS011;15036;48.094;-1.690;2023-08-17T11:54:22;4.50;;;3.15;;
27612;SDS011;15036;48.094;-1.690;2023-08-17T11:56:47;6.03;;;3.67;;
27612;SDS011;15036;48.094;-1.690;2023-08-17T11:59:13;4.13;;;2.95;;
27612;SDS011;15036;48.094;-1.690;2023-08-17T12:01:48;6.75;;;3.70;;
27612;SDS011;15036;48.094;-1.690;2023-08-17T12:04:14;3.78;;;3.10;;
27612;SDS011;15036;48.094;-1.690;2023-08-17T12:06:43;5.63;;;3.28;;
27612;SDS011;15036;48.094;-1.690;2023-08-17T12:11:37;5.57;;;3.13;;
27612;SDS011;15036;48.094;-1.690;2023-08-17T12:14:08;4.93;;;3.42;;
27612;SDS011;15036;48.094;-1.690;2023-08-17T12:16:44;4.90;;;3.25;;
27612;SDS011;15036;48.094;-1.690;2023-08-17T12:19:11;5.93;;;3.40;;
27612;SDS011;15036;48.094;-1.690;2023-08-17T12:21:36;4.28;;;3.33;;
27612;SDS011;15036;48.094;-1.690;2023-08-17T12:24:05;3.63;;;3.20;;
27612;SDS011;15036;48.094;-1.690;2023-08-17T12:26:31;3.80;;;3.20;;
27612;SDS011;15036;48.094;-1.690;2023-08-17T12:28:59;3.95;;;2.92;;
27612;SDS011;15036;48.094;-1.690;2023-08-17T12:31:24;3.70;;;3.10;;
27612;SDS011;15036;48.094;-1.690;2023-08-17T12:33:50;6.05;;;3.67;;
27612;SDS011;15036;48.094;-1.690;2023-08-17T12:36:15;4.90;;;3.10;;
27612;SDS011;15036;48.094;-1.690;2023-08-17T12:38:41;4.60;;;3.10;;
27612;SDS011;15036;48.094;-1.690;2023-08-17T12:41:10;4.82;;;2.92;;
27612;SDS011;15036;48.094;-1.690;2023-08-17T12:43:36;4.63;;;3.03;;
27612;SDS011;15036;48.094;-1.690;2023-08-17T12:46:02;5.25;;;2.95;;
27612;SDS011;15036;48.094;-1.690;2023-08-17T12:48:28;3.85;;;2.60;;
27612;SDS011;15036;48.094;-1.690;2023-08-17T12:50:54;4.85;;;3.08;;
27612;SDS011;15036;48.094;-1.690;2023-08-17T12:53:19;5.07;;;3.30;;
27612;SDS011;15036;48.094;-1.690;2023-08-17T12:55:44;4.90;;;3.28;;
27612;SDS011;15036;48.094;-1.690;2023-08-17T12:58:10;5.55;;;3.10;;
27612;SDS011;15036;48.094;-1.690;2023-08-17T13:00:35;4.78;;;3.05;;
27612;SDS011;15036;48.094;-1.690;2023-08-17T13:03:01;6.60;;;3.10;;
27612;SDS011;15036;48.094;-1.690;2023-08-17T13:05:26;6.90;;;2.95;;
27612;SDS011;15036;48.094;-1.690;2023-08-17T13:07:51;5.25;;;3.50;;
27612;SDS011;15036;48.094;-1.690;2023-08-17T13:10:17;6.72;;;3.00;;
27612;SDS011;15036;48.094;-1.690;2023-08-17T13:12:42;4.82;;;3.00;;
27612;SDS011;15036;48.094;-1.690;2023-08-17T13:15:08;3.63;;;2.65;;
27612;SDS011;15036;48.094;-1.690;2023-08-17T13:17:33;4.50;;;3.00;;
27612;SDS011;15036;48.094;-1.690;2023-08-17T13:19:58;4.20;;;2.65;;
27612;SDS011;15036;48.094;-1.690;2023-08-17T13:22:24;5.20;;;2.72;;
27612;SDS011;15036;48.094;-1.690;2023-08-17T13:24:49;5.72;;;2.50;;
27612;SDS011;15036;48.094;-1.690;2023-08-17T13:27:14;6.15;;;3.03;;
27612;SDS011;15036;48.094;-1.690;2023-08-17T13:29:40;4.15;;;2.65;;
27612;SDS011;15036;48.094;-1.690;2023-08-17T13:32:05;4.63;;;2.95;;
27612;SDS011;15036;48.094;-1.690;2023-08-17T13:34:30;4.60;;;2.92;;
27612;SDS011;15036;48.094;-1.690;2023-08-17T13:36:56;5.47;;;2.85;;
27612;SDS011;15036;48.094;-1.690;2023-08-17T13:39:21;5.30;;;3.13;;
27612;SDS011;15036;48.094;-1.690;2023-08-17T13:41:46;6.15;;;2.78;;
27612;SDS011;15036;48.094;-1.690;2023-08-17T13:44:12;4.28;;;2.83;;
27612;SDS011;15036;48.094;-1.690;2023-08-17T13:46:37;5.50;;;3.00;;
27612;SDS011;15036;48.094;-1.690;2023-08-17T13:49:03;4.78;;;2.90;;
27612;SDS011;15036;48.094;-1.690;2023-08-17T13:51:29;4.97;;;2.92;;
27612;SDS011;15036;48.094;-1.690;2023-08-17T13:53:54;5.40;;;3.10;;
27612;SDS011;15036;48.094;-1.690;2023-08-17T13:56:20;5.65;;;3.45;;
27612;SDS011;15036;48.094;-1.690;2023-08-17T13:58:45;5.53;;;3.20;;
27612;SDS011;15036;48.094;-1.690;2023-08-17T14:01:10;4.40;;;2.70;;
27612;SDS011;15036;48.094;-1.690;2023-08-17T14:03:36;4.65;;;3.25;;
27612;SDS011;15036;48.094;-1.690;2023-08-17T14:06:02;5.47;;;3.20;;
27612;SDS011;15036;48.094;-1.690;2023-08-17T14:08:28;6.47;;;3.30;;
27612;SDS011;15036;48.094;-1.690;2023-08-17T14:10:53;7.13;;;3.00;;
27612;SDS011;15036;48.094;-1.690;2023-08-17T14:13:18;4.63;;;2.90;;
27612;SDS011;15036;48.094;-1.690;2023-08-17T14:15:44;4.72;;;3.00;;
27612;SDS011;15036;48.094;-1.690;2023-08-17T14:18:09;4.68;;;2.83;;
27612;SDS011;15036;48.094;-1.690;2023-08-17T14:20:36;6.55;;;3.22;;
27612;SDS011;15036;48.094;-1.690;2023-08-17T14:23:01;4.43;;;2.90;;
27612;SDS011;15036;48.094;-1.690;2023-08-17T14:25:27;5.50;;;3.00;;
27612;SDS011;15036;48.094;-1.690;2023-08-17T14:27:53;5.80;;;2.85;;
27612;SDS011;15036;48.094;-1.690;2023-08-17T14:30:18;5.90;;;2.90;;
27612;SDS011;15036;48.094;-1.690;2023-08-17T14:32:44;3.30;;;2.70;;
27612;SDS011;15036;48.094;-1.690;2023-08-17T14:35:09;4.00;;;3.17;;
27612;SDS011;15036;48.094;-1.690;2023-08-17T14:37:35;4.95;;;3.05;;
27612;SDS011;15036;48.094;-1.690;2023-08-17T14:40:00;4.32;;;2.95;;
27612;SDS011;15036;48.094;-1.690;2023-08-17T14:42:26;5.25;;;3.00;;